Time;durP1;ratioP1;P1;durP2;ratioP2;P2;SDS_P1;SDS_P2;PMS_P1;PMS_P2;Temp;Humidity;BMP_temperature;BMP_pressure;BME280_temperature;BME280_humidity;BME280_pressure;Samples;Min_cycle;Max_cycle;Signal;HPM_P1;HPM_P2
2021/07/21 00:00:21;;;;;;;11.10;9.10;;;14.90;99.90;;;;;;4964629;28;20070;-73
2021/07/21 00:02:48;;;;;;;12.18;9.15;;;14.90;99.90;;;;;;4959105;28;20209;-71
2021/07/21 00:05:18;;;;;;;11.45;8.90;;;15.00;99.90;;;;;;4951871;28;20102;-72
2021/07/21 00:07:46;;;;;;;11.95;8.65;;;14.90;99.90;;;;;;4968624;28;20532;-72
2021/07/21 00:10:15;;;;;;;11.82;8.65;;;14.90;99.90;;;;;;4951466;28;20734;-71
2021/07/21 00:15:31;;;;;;;13.65;9.65;;;15.10;99.90;;;;;;4917955;28;20047;-71
2021/07/21 00:18:03;;;;;;;14.13;9.45;;;15.10;99.90;;;;;;4950725;28;20067;-71
2021/07/21 00:20:31;;;;;;;13.98;10.52;;;15.20;99.90;;;;;;4950776;28;20535;-71
2021/07/21 00:22:59;;;;;;;14.05;9.52;;;15.00;99.90;;;;;;4957622;28;20688;-72
2021/07/21 00:25:26;;;;;;;13.50;10.68;;;14.80;99.90;;;;;;4970969;28;20051;-70
2021/07/21 00:27:53;;;;;;;16.40;10.40;;;14.70;99.90;;;;;;4970851;28;20656;-71
2021/07/21 00:30:21;;;;;;;14.43;10.45;;;14.70;99.90;;;;;;4972592;28;20462;-71
2021/07/21 00:32:49;;;;;;;13.20;10.80;;;14.60;99.90;;;;;;4971135;28;20059;-71
2021/07/21 00:35:18;;;;;;;14.32;9.93;;;14.60;99.90;;;;;;4960861;28;20055;-72
2021/07/21 00:37:45;;;;;;;12.38;10.38;;;14.30;99.90;;;;;;4941275;28;20094;-72
2021/07/21 00:40:16;;;;;;;15.73;10.55;;;14.20;99.90;;;;;;4935477;28;20134;-69
2021/07/21 00:42:45;;;;;;;12.70;10.05;;;14.10;99.90;;;;;;4962185;28;20062;-72
2021/07/21 00:45:12;;;;;;;15.18;10.27;;;14.20;99.90;;;;;;4956319;28;20542;-72
2021/07/21 00:47:41;;;;;;;17.17;11.30;;;14.00;99.90;;;;;;4962475;28;20583;-72
2021/07/21 00:50:10;;;;;;;13.20;10.45;;;13.90;99.90;;;;;;4953492;28;20118;-72
2021/07/21 00:52:40;;;;;;;14.68;10.88;;;13.80;99.90;;;;;;4955721;28;20535;-72
2021/07/21 00:55:10;;;;;;;16.67;10.13;;;13.90;99.90;;;;;;4934765;28;20057;-72
2021/07/21 00:57:40;;;;;;;15.52;10.95;;;13.80;99.90;;;;;;4968056;28;20130;-72
2021/07/21 01:00:17;;;;;;;14.82;9.95;;;13.70;99.90;;;;;;4953604;28;20047;-72
2021/07/21 01:02:51;;;;;;;16.92;11.30;;;13.70;99.90;;;;;;4964128;28;20508;-72
2021/07/21 01:05:27;;;;;;;14.55;10.52;;;13.80;99.90;;;;;;4962029;28;20178;-72
2021/07/21 01:07:57;;;;;;;14.07;11.30;;;13.60;99.90;;;;;;4970358;28;20040;-72
2021/07/21 01:10:27;;;;;;;19.48;11.52;;;13.40;99.90;;;;;;4966411;28;20043;-73
2021/07/21 01:13:11;;;;;;;16.65;10.80;;;13.50;99.90;;;;;;4945714;28;20062;-71
2021/07/21 01:16:13;;;;;;;15.95;10.93;;;13.40;99.90;;;;;;4950413;28;20133;-71
2021/07/21 01:19:10;;;;;;;15.05;10.98;;;13.50;99.90;;;;;;4951200;28;20180;-72
2021/07/21 01:22:17;;;;;;;18.80;10.50;;;13.30;99.90;;;;;;4914088;29;20047;-72
2021/07/21 01:25:03;;;;;;;17.23;11.20;;;13.30;99.90;;;;;;4962563;28;20054;-72
2021/07/21 01:27:43;;;;;;;17.92;11.40;;;13.20;99.90;;;;;;4963944;28;20056;-71
2021/07/21 01:30:17;;;;;;;17.33;11.00;;;13.10;99.90;;;;;;4963813;28;20062;-71
2021/07/21 01:32:58;;;;;;;15.85;10.82;;;13.20;99.90;;;;;;4935932;28;20124;-71
2021/07/21 01:35:32;;;;;;;13.60;10.43;;;13.10;99.90;;;;;;4959076;28;20051;-71
2021/07/21 01:38:07;;;;;;;14.73;9.85;;;13.10;99.90;;;;;;4967896;28;20102;-72
2021/07/21 01:40:45;;;;;;;15.75;11.15;;;13.10;99.90;;;;;;4949137;28;20078;-72
2021/07/21 01:43:19;;;;;;;14.95;10.65;;;13.10;99.90;;;;;;4955585;28;20522;-72
2021/07/21 01:45:47;;;;;;;21.17;11.43;;;13.00;99.90;;;;;;4947397;28;20394;-72
2021/07/21 01:48:16;;;;;;;18.23;11.15;;;13.20;99.90;;;;;;4954956;28;20471;-72
2021/07/21 01:50:45;;;;;;;15.80;10.70;;;13.40;99.90;;;;;;4976009;28;20058;-72
2021/07/21 01:53:13;;;;;;;15.48;11.18;;;13.20;99.90;;;;;;4967428;28;20173;-73
2021/07/21 01:55:40;;;;;;;16.92;10.73;;;13.20;99.90;;;;;;4965332;28;20143;-72
2021/07/21 01:58:10;;;;;;;17.60;10.73;;;13.20;99.90;;;;;;4967945;28;20074;-72
2021/07/21 02:01:07;;;;;;;14.52;10.73;;;13.30;99.90;;;;;;4936241;28;20412;-73
2021/07/21 02:03:35;;;;;;;16.50;11.82;;;13.20;99.90;;;;;;4947834;28;20074;-72
2021/07/21 02:06:07;;;;;;;17.13;11.23;;;13.10;99.90;;;;;;4953865;28;20058;-72
2021/07/21 02:08:37;;;;;;;14.80;10.43;;;13.10;99.90;;;;;;4959733;28;20059;-73
2021/07/21 02:11:22;;;;;;;17.48;11.23;;;13.10;99.90;;;;;;4972331;28;20294;-74
2021/07/21 02:13:51;;;;;;;16.90;11.60;;;13.10;99.90;;;;;;4932637;29;20051;-74
2021/07/21 02:16:31;;;;;;;15.10;11.20;;;13.00;99.90;;;;;;4931070;29;20310;-73
2021/07/21 02:18:59;;;;;;;16.08;11.00;;;13.10;99.90;;;;;;4963868;28;20077;-72
2021/07/21 02:21:40;;;;;;;16.73;11.40;;;13.10;99.90;;;;;;4958841;28;20118;-72
2021/07/21 02:24:11;;;;;;;21.30;11.23;;;13.20;99.90;;;;;;4956799;28;20093;-72
2021/07/21 02:26:56;;;;;;;17.42;11.25;;;13.10;99.90;;;;;;4963083;28;20089;-72
2021/07/21 02:29:24;;;;;;;17.83;10.82;;;13.20;99.90;;;;;;4931071;29;20313;-72
2021/07/21 02:32:18;;;;;;;18.77;10.52;;;13.00;99.90;;;;;;4948432;28;20518;-72
2021/07/21 02:34:46;;;;;;;20.45;11.98;;;13.00;99.90;;;;;;4948608;28;20478;-72
2021/07/21 02:37:16;;;;;;;14.73;9.95;;;12.90;99.90;;;;;;4952977;28;20532;-72
2021/07/21 02:39:47;;;;;;;21.33;12.18;;;13.00;99.90;;;;;;4947799;29;20523;-72
2021/07/21 02:42:15;;;;;;;19.38;11.00;;;13.00;99.90;;;;;;4955805;28;20056;-72
2021/07/21 02:44:47;;;;;;;19.30;11.70;;;13.00;99.90;;;;;;4934254;28;20061;-72
2021/07/21 02:47:15;;;;;;;17.88;11.60;;;13.00;99.90;;;;;;4949458;28;20110;-72
2021/07/21 02:49:49;;;;;;;16.63;10.13;;;13.00;99.90;;;;;;4941049;29;20149;-72
2021/07/21 02:52:35;;;;;;;18.58;10.48;;;13.10;99.90;;;;;;4954052;28;20059;-72
2021/07/21 02:55:43;;;;;;;15.10;10.55;;;13.10;99.90;;;;;;4953005;28;20134;-72
2021/07/21 02:58:36;;;;;;;12.90;9.27;;;13.00;99.90;;;;;;4946644;29;20047;-72
2021/07/21 03:01:05;;;;;;;14.98;10.50;;;13.00;99.90;;;;;;4928641;29;20039;-72
2021/07/21 03:03:36;;;;;;;15.20;10.13;;;13.10;99.90;;;;;;4976084;28;20049;-72
2021/07/21 03:06:07;;;;;;;14.73;10.88;;;13.20;99.90;;;;;;4937028;28;20495;-73
2021/07/21 03:08:50;;;;;;;14.65;10.18;;;13.30;99.90;;;;;;4965429;28;20511;-71
2021/07/21 03:11:30;;;;;;;16.08;10.40;;;13.40;99.90;;;;;;4964009;28;20512;-72
2021/07/21 03:14:03;;;;;;;16.42;10.40;;;13.30;99.90;;;;;;4956992;28;20043;-71
2021/07/21 03:16:45;;;;;;;16.50;10.45;;;13.30;99.90;;;;;;4929031;28;20578;-71
2021/07/21 03:19:30;;;;;;;17.35;10.40;;;13.40;99.90;;;;;;4959167;28;20051;-71
2021/07/21 03:22:03;;;;;;;17.75;10.70;;;13.30;99.90;;;;;;4959700;28;20046;-71
2021/07/21 03:24:41;;;;;;;17.50;10.75;;;13.30;99.90;;;;;;4964348;28;20063;-71
2021/07/21 03:27:19;;;;;;;19.50;12.00;;;13.20;99.90;;;;;;4929137;29;20117;-72
2021/07/21 03:30:09;;;;;;;15.77;11.35;;;13.30;99.90;;;;;;4945100;28;20098;-71
2021/07/21 03:32:47;;;;;;;19.98;11.27;;;13.30;99.90;;;;;;4946010;28;20173;-71
2021/07/21 03:35:25;;;;;;;16.65;10.60;;;13.30;99.90;;;;;;4965512;28;20507;-71
2021/07/21 03:37:55;;;;;;;16.98;10.60;;;13.20;99.90;;;;;;4944091;28;20097;-72
2021/07/21 03:40:28;;;;;;;17.48;11.07;;;13.20;99.90;;;;;;4970865;28;20046;-72
2021/07/21 03:43:17;;;;;;;21.88;11.60;;;13.40;99.90;;;;;;4970729;28;20043;-72
2021/07/21 03:45:55;;;;;;;17.95;10.63;;;13.40;99.90;;;;;;4948754;28;20078;-72
2021/07/21 03:48:24;;;;;;;23.40;11.00;;;13.40;99.90;;;;;;4959727;28;20126;-71
2021/07/21 03:51:07;;;;;;;15.20;10.40;;;13.50;99.90;;;;;;4944918;28;20170;-72
2021/07/21 03:53:53;;;;;;;15.93;10.48;;;13.30;99.90;;;;;;4951021;28;20047;-71
2021/07/21 03:56:21;;;;;;;17.58;10.50;;;13.20;99.90;;;;;;4964466;28;20374;-73
2021/07/21 03:58:56;;;;;;;19.38;10.75;;;13.30;99.90;;;;;;4966069;28;20142;-71
2021/07/21 04:01:26;;;;;;;18.58;11.52;;;13.40;99.90;;;;;;4965197;28;20058;-70
2021/07/21 04:03:57;;;;;;;19.23;11.45;;;13.30;99.90;;;;;;4961956;28;20491;-71
2021/07/21 04:06:34;;;;;;;15.45;10.18;;;13.30;99.90;;;;;;4952860;28;20055;-71
2021/07/21 04:09:28;;;;;;;16.92;10.60;;;13.40;99.90;;;;;;4961876;28;20065;-71
2021/07/21 04:12:00;;;;;;;16.23;10.98;;;13.60;99.90;;;;;;4948015;28;20058;-71
2021/07/21 04:14:51;;;;;;;17.73;11.13;;;13.70;99.90;;;;;;4947782;28;20110;-72
2021/07/21 04:17:32;;;;;;;19.25;11.23;;;13.60;99.90;;;;;;4946171;28;20047;-73
2021/07/21 04:20:07;;;;;;;18.35;10.82;;;13.70;99.90;;;;;;4944545;28;20058;-71
2021/07/21 04:22:35;;;;;;;17.85;10.68;;;13.80;99.90;;;;;;4944683;28;20063;-72
2021/07/21 04:25:06;;;;;;;15.63;10.40;;;13.90;99.90;;;;;;4931946;28;20316;-72
2021/07/21 04:27:35;;;;;;;16.33;10.48;;;13.90;99.90;;;;;;4964425;28;20051;-71
2021/07/21 04:30:14;;;;;;;19.15;10.93;;;14.00;99.90;;;;;;4964968;28;20416;-70
2021/07/21 04:32:43;;;;;;;15.93;10.93;;;14.00;99.90;;;;;;4964919;28;20222;-70
2021/07/21 04:35:16;;;;;;;17.13;11.40;;;14.10;99.90;;;;;;4964609;28;20085;-73
2021/07/21 04:38:01;;;;;;;20.73;12.27;;;14.10;99.90;;;;;;4963422;28;20537;-72
2021/07/21 04:40:47;;;;;;;14.85;10.88;;;14.10;99.90;;;;;;4944967;29;20046;-72
2021/07/21 04:43:34;;;;;;;14.13;10.38;;;14.20;99.90;;;;;;4944296;29;20049;-72
2021/07/21 04:46:04;;;;;;;15.55;11.43;;;14.10;99.90;;;;;;4946494;28;20047;-72
2021/07/21 04:48:34;;;;;;;22.50;11.23;;;14.10;99.90;;;;;;4961194;28;20107;-73
2021/07/21 04:51:16;;;;;;;18.20;12.40;;;14.30;99.90;;;;;;4950439;28;20393;-73
2021/07/21 04:53:45;;;;;;;17.02;11.60;;;14.30;99.90;;;;;;4975096;28;20566;-71
2021/07/21 04:56:17;;;;;;;18.02;12.18;;;14.20;99.90;;;;;;4938260;28;20495;-70
2021/07/21 04:58:44;;;;;;;15.65;11.32;;;14.30;99.90;;;;;;4952674;28;20131;-72
2021/07/21 05:01:13;;;;;;;17.40;11.52;;;14.40;99.90;;;;;;4948030;29;20051;-73
2021/07/21 05:03:42;;;;;;;15.30;11.52;;;14.50;99.90;;;;;;4949495;28;20126;-72
2021/07/21 05:06:16;;;;;;;16.52;10.93;;;14.50;99.90;;;;;;4959061;28;20042;-72
2021/07/21 05:08:49;;;;;;;17.13;12.07;;;14.50;99.90;;;;;;4967734;28;20492;-72
2021/07/21 05:11:21;;;;;;;19.05;12.18;;;14.50;99.90;;;;;;4967257;28;20078;-71
2021/07/21 05:13:53;;;;;;;17.23;11.60;;;14.50;99.90;;;;;;4959471;28;20461;-70
2021/07/21 05:16:24;;;;;;;17.83;12.02;;;14.50;99.90;;;;;;4948436;28;20520;-70
2021/07/21 05:18:51;;;;;;;18.38;12.57;;;14.50;99.90;;;;;;4947969;29;20159;-72
2021/07/21 05:21:27;;;;;;;15.55;11.15;;;14.60;99.90;;;;;;4963860;28;20047;-71
2021/07/21 05:23:54;;;;;;;20.77;12.07;;;14.60;99.90;;;;;;4964678;28;20455;-73
2021/07/21 05:26:22;;;;;;;17.98;11.90;;;14.60;99.90;;;;;;4929683;28;20063;-71
2021/07/21 05:29:08;;;;;;;19.27;12.02;;;14.80;99.90;;;;;;4967682;28;20417;-70
2021/07/21 05:31:50;;;;;;;16.02;12.13;;;14.80;99.90;;;;;;4967308;28;20051;-71
2021/07/21 05:34:26;;;;;;;16.00;11.40;;;14.90;99.90;;;;;;4957132;28;20055;-71
2021/07/21 05:37:14;;;;;;;17.60;12.45;;;15.00;99.90;;;;;;4955664;28;20070;-71
2021/07/21 05:40:07;;;;;;;19.15;11.57;;;15.00;99.90;;;;;;4952306;28;20066;-71
2021/07/21 05:42:55;;;;;;;17.23;11.95;;;15.10;99.90;;;;;;4931272;29;20058;-72
2021/07/21 05:45:25;;;;;;;18.80;13.13;;;15.20;99.90;;;;;;4962890;28;20243;-71
2021/07/21 05:47:53;;;;;;;22.95;13.10;;;15.20;99.90;;;;;;4955901;28;20070;-73
2021/07/21 05:50:20;;;;;;;16.27;12.27;;;15.40;99.90;;;;;;4961358;28;20452;-71
2021/07/21 05:52:56;;;;;;;18.27;13.20;;;15.40;99.90;;;;;;4964126;28;20083;-72
2021/07/21 05:55:29;;;;;;;20.27;13.85;;;15.50;99.90;;;;;;4940846;29;20432;-72
2021/07/21 05:57:57;;;;;;;16.30;12.80;;;15.70;99.90;;;;;;4947452;29;20117;-72
2021/07/21 06:00:24;;;;;;;17.25;12.68;;;15.80;99.90;;;;;;4931465;28;20536;-71
2021/07/21 06:02:59;;;;;;;17.45;12.65;;;15.90;99.90;;;;;;4971541;28;20145;-72
2021/07/21 06:05:45;;;;;;;20.60;12.90;;;16.00;99.90;;;;;;4970383;28;20073;-71
2021/07/21 06:08:41;;;;;;;19.45;13.80;;;16.00;99.90;;;;;;4941145;28;20051;-71
2021/07/21 06:11:19;;;;;;;;;;;16.10;99.90;;;;;;4965894;28;20134;-72
2021/07/21 06:13:46;;;;;;;15.88;13.35;;;16.30;99.90;;;;;;4950864;28;19930;-71
2021/07/21 06:16:15;;;;;;;19.33;13.02;;;16.30;99.90;;;;;;4947978;28;20419;-72
2021/07/21 06:18:44;;;;;;;16.13;12.88;;;16.30;99.90;;;;;;4962856;28;20130;-72
2021/07/21 06:21:13;;;;;;;18.83;12.50;;;16.40;99.90;;;;;;4950108;28;20047;-72
2021/07/21 06:24:10;;;;;;;22.10;13.25;;;16.50;99.90;;;;;;4920330;28;20070;-71
2021/07/21 06:26:38;;;;;;;17.15;13.73;;;16.60;99.90;;;;;;4960668;28;20097;-71
2021/07/21 06:29:28;;;;;;;22.25;13.57;;;16.60;99.90;;;;;;4966369;28;20511;-71
2021/07/21 06:31:58;;;;;;;18.13;13.60;;;16.70;99.90;;;;;;4962455;28;20066;-72
2021/07/21 06:34:26;;;;;;;16.33;12.77;;;16.60;99.90;;;;;;4949197;28;20054;-71
2021/07/21 06:36:57;;;;;;;16.45;14.05;;;16.80;99.90;;;;;;4969101;28;20503;-72
2021/07/21 06:39:24;;;;;;;22.38;15.40;;;16.90;99.90;;;;;;4966974;28;20046;-71
2021/07/21 06:41:52;;;;;;;18.27;14.30;;;17.00;99.90;;;;;;4967170;28;20057;-72
2021/07/21 06:44:23;;;;;;;17.23;14.85;;;17.20;99.90;;;;;;4964942;28;20581;-72
2021/07/21 06:47:05;;;;;;;23.13;16.35;;;17.40;99.90;;;;;;4957536;28;20043;-71
2021/07/21 06:49:33;;;;;;;17.95;14.88;;;17.40;99.90;;;;;;4931887;28;20058;-71
2021/07/21 06:52:01;;;;;;;19.05;15.27;;;17.50;99.90;;;;;;4965018;28;20523;-71
2021/07/21 06:54:35;;;;;;;17.48;14.40;;;17.70;99.90;;;;;;4947259;28;20055;-71
2021/07/21 06:57:20;;;;;;;19.17;14.60;;;17.70;99.90;;;;;;4932056;28;20468;-71
2021/07/21 06:59:50;;;;;;;21.80;15.30;;;17.90;99.90;;;;;;4946847;28;20449;-71
2021/07/21 07:02:31;;;;;;;19.98;15.63;;;17.80;99.90;;;;;;4945835;28;20090;-72
2021/07/21 07:05:28;;;;;;;19.63;15.18;;;17.90;99.90;;;;;;4953597;28;20405;-71
2021/07/21 07:08:13;;;;;;;19.95;15.48;;;18.00;99.90;;;;;;4950407;28;20102;-71
2021/07/21 07:10:59;;;;;;;;;;;18.20;99.90;;;;;;4946394;28;20063;-72
2021/07/21 07:13:26;;;;;;;21.90;15.27;;;18.40;99.90;;;;;;4929616;28;20355;-71
2021/07/21 07:15:55;;;;;;;19.20;15.15;;;18.60;99.90;;;;;;4948319;28;20550;-71
2021/07/21 07:18:22;;;;;;;19.30;16.52;;;18.70;99.90;;;;;;4949694;28;20482;-72
2021/07/21 07:20:50;;;;;;;23.00;16.25;;;18.70;99.90;;;;;;4947107;28;20102;-72
2021/07/21 07:23:17;;;;;;;18.10;15.80;;;18.80;99.90;;;;;;4947694;28;20055;-71
2021/07/21 07:25:44;;;;;;;21.83;16.90;;;19.00;99.90;;;;;;4946951;28;20154;-72
2021/07/21 07:28:12;;;;;;;21.17;17.50;;;19.20;99.90;;;;;;4947173;29;20059;-72
2021/07/21 07:30:39;;;;;;;19.83;17.77;;;19.40;99.90;;;;;;4945548;28;20055;-71
2021/07/21 07:33:06;;;;;;;19.13;16.63;;;19.50;99.90;;;;;;4949284;28;20043;-71
2021/07/21 07:35:36;;;;;;;18.48;16.58;;;19.60;99.90;;;;;;4973676;28;20385;-71
2021/07/21 07:38:03;;;;;;;19.10;16.90;;;19.60;99.90;;;;;;4961133;28;20107;-71
2021/07/21 07:40:30;;;;;;;18.45;16.65;;;19.60;99.90;;;;;;4964284;28;20077;-75
2021/07/21 07:42:57;;;;;;;19.70;17.60;;;19.70;99.90;;;;;;4965630;28;20061;-76
2021/07/21 07:45:24;;;;;;;18.30;16.40;;;19.80;99.90;;;;;;4945833;28;20043;-75
2021/07/21 07:47:51;;;;;;;18.58;16.67;;;19.90;99.90;;;;;;4951153;28;20516;-75
2021/07/21 07:50:18;;;;;;;18.27;16.48;;;20.10;99.90;;;;;;4929548;28;20059;-74
2021/07/21 07:52:45;;;;;;;19.30;17.40;;;20.10;99.90;;;;;;4950679;28;20055;-75
2021/07/21 07:55:12;;;;;;;19.13;17.33;;;20.30;99.90;;;;;;4962102;28;20432;-76
2021/07/21 07:57:39;;;;;;;19.17;17.38;;;20.20;99.90;;;;;;4945995;28;20461;-76
2021/07/21 08:00:09;;;;;;;20.63;17.23;;;20.20;99.90;;;;;;4946967;28;20070;-76
2021/07/21 08:02:41;;;;;;;17.90;16.05;;;20.20;99.90;;;;;;4948047;28;20608;-75
2021/07/21 08:05:09;;;;;;;18.35;16.38;;;20.30;99.90;;;;;;4952741;28;20518;-74
2021/07/21 08:07:37;;;;;;;17.38;15.65;;;20.40;99.90;;;;;;4956002;28;20102;-75
2021/07/21 08:10:04;;;;;;;18.65;16.85;;;20.40;99.90;;;;;;4947082;28;20071;-76
2021/07/21 08:12:31;;;;;;;21.48;17.83;;;20.40;99.90;;;;;;4938371;28;20071;-76
2021/07/21 08:14:59;;;;;;;20.67;18.02;;;20.50;99.90;;;;;;4963804;28;20051;-75
2021/07/21 08:17:26;;;;;;;18.70;16.77;;;20.50;99.90;;;;;;4930278;29;20137;-75
2021/07/21 08:19:53;;;;;;;19.38;16.92;;;20.60;99.90;;;;;;4963023;28;20044;-75
2021/07/21 08:22:20;;;;;;;18.05;16.27;;;20.70;99.90;;;;;;4951146;28;20142;-82
2021/07/21 08:24:47;;;;;;;16.15;14.65;;;20.60;99.90;;;;;;4936428;28;20043;-78
2021/07/21 08:27:15;;;;;;;18.70;16.90;;;20.30;99.90;;;;;;4961063;28;20082;-79
2021/07/21 08:29:42;;;;;;;17.27;15.52;;;20.20;99.90;;;;;;4972066;28;20105;-78
2021/07/21 08:32:09;;;;;;;16.20;14.60;;;20.10;99.90;;;;;;4943768;28;20055;-79
2021/07/21 08:34:36;;;;;;;13.50;12.30;;;20.00;99.90;;;;;;4952713;28;20042;-78
2021/07/21 08:37:04;;;;;;;15.07;13.57;;;20.10;99.90;;;;;;4964308;28;20054;-79
2021/07/21 08:39:31;;;;;;;15.80;14.40;;;20.10;99.90;;;;;;4968645;28;20467;-78
2021/07/21 08:41:59;;;;;;;16.50;14.85;;;20.10;99.90;;;;;;4947633;28;20044;-79
2021/07/21 08:44:26;;;;;;;15.65;13.95;;;20.00;99.90;;;;;;4956247;28;20134;-78
2021/07/21 08:46:53;;;;;;;17.25;14.98;;;20.00;99.90;;;;;;4944002;28;20532;-80
2021/07/21 08:49:20;;;;;;;17.77;14.45;;;19.80;99.90;;;;;;4979964;28;20055;-81
2021/07/21 08:51:47;;;;;;;17.65;15.35;;;19.70;99.90;;;;;;4956020;28;20039;-77
2021/07/21 08:54:16;;;;;;;17.83;16.17;;;19.60;99.90;;;;;;4966671;28;20049;-74
2021/07/21 08:56:44;;;;;;;19.75;17.75;;;19.70;99.90;;;;;;4995047;28;20051;-79
2021/07/21 08:59:16;;;;;;;18.02;15.77;;;19.70;99.90;;;;;;4974959;28;20606;-78
2021/07/21 09:01:44;;;;;;;22.77;17.27;;;19.70;99.90;;;;;;4956158;28;20487;-80
2021/07/21 09:04:11;;;;;;;18.95;16.95;;;19.70;99.90;;;;;;4968786;28;20496;-79
2021/07/21 09:06:39;;;;;;;18.95;15.98;;;19.70;99.90;;;;;;4932823;28;20091;-77
2021/07/21 09:09:06;;;;;;;18.08;16.17;;;19.80;99.90;;;;;;4972215;28;20201;-78
2021/07/21 09:11:35;;;;;;;16.70;15.18;;;19.80;99.90;;;;;;4973742;28;20064;-78
2021/07/21 09:14:03;;;;;;;16.58;14.98;;;19.90;99.90;;;;;;4946757;28;20249;-78
2021/07/21 09:16:30;;;;;;;15.77;14.38;;;20.00;99.90;;;;;;4963514;28;20097;-78
2021/07/21 09:18:57;;;;;;;15.77;14.45;;;20.10;99.90;;;;;;4967437;28;20043;-78
2021/07/21 09:21:26;;;;;;;17.05;15.25;;;20.10;99.90;;;;;;4974503;28;20058;-78
2021/07/21 09:23:56;;;;;;;15.02;13.73;;;20.10;99.90;;;;;;4955818;28;20042;-79
2021/07/21 09:26:29;;;;;;;16.77;15.23;;;20.10;99.90;;;;;;4973464;28;20058;-81
2021/07/21 09:28:57;;;;;;;16.55;14.65;;;20.10;99.90;;;;;;4976441;28;20059;-79
2021/07/21 09:31:31;;;;;;;16.33;14.80;;;20.20;99.90;;;;;;4935051;28;20085;-79
2021/07/21 09:33:58;;;;;;;15.73;14.33;;;20.40;99.90;;;;;;4930003;28;20047;-75
2021/07/21 09:36:25;;;;;;;15.48;14.07;;;20.30;99.90;;;;;;4961163;28;20043;-80
2021/07/21 09:39:00;;;;;;;16.10;14.48;;;20.30;99.90;;;;;;4951928;29;20055;-78
2021/07/21 09:41:27;;;;;;;15.32;13.88;;;20.60;99.90;;;;;;4947825;28;20460;-77
2021/07/21 09:44:03;;;;;;;15.52;14.02;;;20.70;99.90;;;;;;4940006;29;20051;-75
2021/07/21 09:46:33;;;;;;;15.00;13.70;;;20.80;99.90;;;;;;4939622;28;20472;-80
2021/07/21 09:49:00;;;;;;;15.25;13.70;;;20.90;99.90;;;;;;4968096;28;20057;-79
2021/07/21 09:51:36;;;;;;;14.73;13.25;;;21.00;99.90;;;;;;4947421;28;20103;-80
2021/07/21 09:54:17;;;;;;;15.15;13.68;;;21.10;99.90;;;;;;4959445;28;20047;-80
2021/07/21 09:56:46;;;;;;;13.35;12.15;;;21.20;99.90;;;;;;4947745;29;20424;-78
2021/07/21 09:59:31;;;;;;;13.07;12.10;;;21.50;99.90;;;;;;4934545;28;20154;-79
2021/07/21 10:02:14;;;;;;;13.77;12.88;;;21.30;99.90;;;;;;4950168;28;20134;-81
2021/07/21 10:04:45;;;;;;;13.45;12.57;;;21.20;99.90;;;;;;4959411;28;20528;-74
2021/07/21 10:09:47;;;;;;;12.95;12.05;;;20.90;99.90;;;;;;4960949;28;20061;-75
2021/07/21 10:12:16;;;;;;;13.20;12.20;;;21.00;99.90;;;;;;4941029;28;20439;-78
2021/07/21 10:14:56;;;;;;;11.50;10.80;;;21.00;99.90;;;;;;4954906;28;20431;-77
2021/07/21 10:17:23;;;;;;;12.07;11.10;;;21.00;99.90;;;;;;4948787;28;20050;-75
2021/07/21 10:19:50;;;;;;;11.77;11.07;;;21.00;99.90;;;;;;4946902;28;20053;-77
2021/07/21 10:22:17;;;;;;;12.77;11.90;;;21.00;99.90;;;;;;4951132;28;20095;-75
2021/07/21 10:24:44;;;;;;;13.18;12.07;;;21.20;99.90;;;;;;4955302;28;20055;-78
2021/07/21 10:27:11;;;;;;;12.35;11.43;;;21.40;99.90;;;;;;4953340;28;20283;-78
2021/07/21 10:29:38;;;;;;;12.73;11.93;;;21.40;99.90;;;;;;4930889;29;20060;-79
2021/07/21 10:32:07;;;;;;;11.70;10.80;;;21.30;99.90;;;;;;4943870;28;20087;-77
2021/07/21 10:34:35;;;;;;;12.00;11.10;;;21.40;99.90;;;;;;4953358;28;20062;-77
2021/07/21 10:37:02;;;;;;;13.10;11.93;;;21.40;99.90;;;;;;4941278;29;20439;-79
2021/07/21 10:39:34;;;;;;;12.90;11.73;;;21.50;99.90;;;;;;4934761;29;20046;-77
2021/07/21 10:42:10;;;;;;;12.93;11.93;;;21.40;99.90;;;;;;4959964;28;20082;-77
2021/07/21 10:44:37;;;;;;;13.73;12.55;;;21.20;99.90;;;;;;4947622;28;20126;-76
2021/07/21 10:47:31;;;;;;;13.25;11.95;;;21.10;99.90;;;;;;4948659;28;20478;-76
2021/07/21 10:50:08;;;;;;;14.02;12.55;;;21.20;99.90;;;;;;4947835;28;20043;-78
2021/07/21 10:55:35;;;;;;;14.30;12.77;;;21.10;99.90;;;;;;4956176;28;20176;-77
2021/07/21 11:01:28;;;;;;;13.35;12.13;;;21.40;99.90;;;;;;4930877;29;20051;-75
2021/07/21 11:04:02;;;;;;;14.25;12.90;;;21.30;99.90;;;;;;4945411;28;20543;-77
2021/07/21 11:06:44;;;;;;;14.68;13.40;;;21.10;99.90;;;;;;4969812;28;20047;-75
2021/07/21 11:09:15;;;;;;;13.07;11.95;;;21.20;99.90;;;;;;4970356;28;20578;-78
2021/07/21 11:11:43;;;;;;;13.75;12.45;;;21.10;99.90;;;;;;4954129;28;20054;-80
2021/07/21 11:14:17;;;;;;;14.52;12.10;;;21.00;99.90;;;;;;4958843;28;20055;-77
2021/07/21 11:16:52;;;;;;;13.25;12.00;;;21.10;99.90;;;;;;4960860;28;20058;-78
2021/07/21 11:19:46;;;;;;;13.75;12.43;;;21.10;99.90;;;;;;4951686;28;20087;-77
2021/07/21 11:22:19;;;;;;;23.40;13.63;;;21.10;99.90;;;;;;4945006;28;20119;-78
2021/07/21 11:25:05;;;;;;;14.90;13.43;;;21.10;99.90;;;;;;4951841;28;20061;-78
2021/07/21 11:27:41;;;;;;;14.15;12.82;;;21.00;99.90;;;;;;4950290;28;20074;-78
2021/07/21 11:30:34;;;;;;;16.52;13.80;;;21.00;99.90;;;;;;4949854;28;20130;-77
2021/07/21 11:33:39;;;;;;;15.85;14.30;;;21.00;99.90;;;;;;4953004;28;20502;-77
2021/07/21 11:36:07;;;;;;;14.50;13.07;;;20.90;99.90;;;;;;4964331;28;20050;-78
2021/07/21 11:38:54;;;;;;;14.02;12.88;;;20.90;99.90;;;;;;4951802;28;20039;-76
2021/07/21 11:41:47;;;;;;;14.40;13.18;;;21.00;99.90;;;;;;4952323;28;20102;-76
2021/07/21 11:44:23;;;;;;;14.20;12.93;;;20.80;99.90;;;;;;4935789;28;20113;-76
2021/07/21 11:46:51;;;;;;;14.55;13.15;;;20.60;99.90;;;;;;4955529;28;21216;-78
2021/07/21 11:49:46;;;;;;;17.13;15.73;;;20.80;99.90;;;;;;4954145;28;20634;-77
2021/07/21 11:52:13;;;;;;;19.02;15.52;;;20.80;99.90;;;;;;4959272;28;20113;-78
2021/07/21 11:54:41;;;;;;;15.55;14.05;;;21.00;99.90;;;;;;4968397;28;20489;-76
2021/07/21 11:57:12;;;;;;;16.40;14.80;;;21.10;99.90;;;;;;4982712;28;20051;-77
2021/07/21 11:59:41;;;;;;;16.55;15.13;;;21.20;99.90;;;;;;4950463;28;20126;-77
2021/07/21 12:02:19;;;;;;;16.33;14.82;;;21.20;99.90;;;;;;4949912;28;20055;-76
2021/07/21 12:04:48;;;;;;;17.60;15.85;;;21.40;99.90;;;;;;4956200;28;20118;-78
2021/07/21 12:07:18;;;;;;;16.50;14.88;;;21.10;99.90;;;;;;4955571;28;20577;-79
2021/07/21 12:09:51;;;;;;;15.73;14.43;;;20.90;99.90;;;;;;4956080;28;20535;-77
2021/07/21 12:12:20;;;;;;;16.40;15.00;;;20.90;99.90;;;;;;4953315;28;20399;-77
2021/07/21 12:15:02;;;;;;;16.77;15.38;;;21.00;99.90;;;;;;4954727;28;20053;-77
2021/07/21 12:17:29;;;;;;;16.25;14.68;;;21.00;99.90;;;;;;4936463;29;20063;-78
2021/07/21 12:19:58;;;;;;;17.48;15.63;;;21.20;99.90;;;;;;4949581;28;20135;-77
2021/07/21 12:22:31;;;;;;;17.70;16.05;;;21.30;99.90;;;;;;4931422;29;20468;-78
2021/07/21 12:25:01;;;;;;;17.15;15.63;;;21.30;99.90;;;;;;4946586;28;20047;-78
2021/07/21 12:27:34;;;;;;;16.42;15.13;;;21.20;99.90;;;;;;4947194;28;20336;-78
2021/07/21 12:30:04;;;;;;;16.10;14.80;;;20.80;99.90;;;;;;4961644;28;20075;-78
2021/07/21 12:32:32;;;;;;;17.30;15.80;;;21.00;99.90;;;;;;4965505;28;20134;-75
2021/07/21 12:34:59;;;;;;;16.90;15.48;;;21.40;99.90;;;;;;4940181;28;20440;-76
2021/07/21 12:37:30;;;;;;;19.08;17.33;;;21.40;99.90;;;;;;4942289;28;20101;-76
2021/07/21 12:39:58;;;;;;;18.60;16.83;;;21.40;99.90;;;;;;4966816;28;20050;-77
2021/07/21 12:42:29;;;;;;;17.98;16.38;;;21.50;99.90;;;;;;4956372;28;20109;-77
2021/07/21 12:45:02;;;;;;;18.30;16.58;;;21.60;99.90;;;;;;4930593;29;20320;-77
2021/07/21 12:47:32;;;;;;;19.30;17.60;;;21.50;99.90;;;;;;4947356;28;20166;-77
2021/07/21 12:50:15;;;;;;;19.70;17.90;;;21.60;99.90;;;;;;4949960;28;20460;-77
2021/07/21 12:52:51;;;;;;;18.80;17.15;;;21.80;99.90;;;;;;4938927;28;20063;-77
2021/07/21 12:55:39;;;;;;;20.63;18.55;;;21.60;99.90;;;;;;4957021;28;20572;-77
2021/07/21 12:58:09;;;;;;;20.10;18.20;;;21.30;99.90;;;;;;4945527;28;20304;-77
2021/07/21 13:00:50;;;;;;;18.83;17.13;;;21.20;99.90;;;;;;4948601;28;20078;-78
2021/07/21 13:03:20;;;;;;;20.27;18.42;;;21.30;99.90;;;;;;4947520;29;20055;-77
2021/07/21 13:05:47;;;;;;;20.10;18.40;;;21.40;99.90;;;;;;4956924;28;20047;-78
2021/07/21 13:08:18;;;;;;;20.35;18.45;;;21.60;99.90;;;;;;4951561;28;20443;-79
2021/07/21 13:10:46;;;;;;;20.00;18.13;;;21.60;99.90;;;;;;4954104;28;20067;-77